Archival Weather

Heathrow

London, United Kingdom (EGLL)

Report from: Thursday, September 21, 2023 11:20 AM BST
Current time: Sunday, July 14, 2024 12:07 PM BST

Current weather – Weather history – Daily summaries
Weather forecast

Temperature17.0°C (62.6°F)
Dew point10.0°C (50.0°F)
Winds 7 kts (3.6 m/s, 8.1 mph) Vrb
Winds variableWinds variable from South-Southwest (210°) to West (280°)
Visibility6.2 mi. (10 km)
Clouds Few clouds 2,200 ft. (671 m)
Altimeter29.41 in.Hg (996 mB)
Relative humidity63 %
Density altitude996 ft. (304 m)
Remarks Fully automated report
Corrected report
No significant changes expected in the next two hours
Flight conditions Visual Meteorological Conditions
Raw dataCOR EGLL 211020Z AUTO 24007KT 210V280 9999 FEW022 17/10 Q0996 NOSIG
An error has occurred. This application may no longer respond until reloaded. Reload 🗙